Time;durP1;ratioP1;P1;durP2;ratioP2;P2;SDS_P1;SDS_P2;PMS_P1;PMS_P2;Temp;Humidity;BMP_temperature;BMP_pressure;BME280_temperature;BME280_humidity;BME280_pressure;Samples;Min_cycle;Max_cycle;Signal;HPM_P1;HPM_P2
2023/03/02 00:00:10;;;;;;;16.47;11.13;;;;;;;;;;4992163;28;20263;-83
2023/03/02 00:02:39;;;;;;;15.70;9.90;;;;;;;;;;4992188;28;20210;-84
2023/03/02 00:05:08;;;;;;;16.87;11.40;;;;;;;;;;4992102;28;20236;-83
2023/03/02 00:07:38;;;;;;;15.00;10.37;;;;;;;;;;4991626;28;20227;-83
2023/03/02 00:10:07;;;;;;;15.00;10.50;;;;;;;;;;4998285;28;20207;-84
2023/03/02 00:12:35;;;;;;;15.83;10.27;;;;;;;;;;5011080;28;20214;-84
2023/03/02 00:15:02;;;;;;;15.30;10.37;;;;;;;;;;5011570;28;20231;-83
2023/03/02 00:17:29;;;;;;;17.13;11.07;;;;;;;;;;5011168;28;20212;-83
2023/03/02 00:20:09;;;;;;;16.93;10.70;;;;;;;;;;5006753;28;20763;-83
2023/03/02 00:22:37;;;;;;;18.40;10.47;;;;;;;;;;4991216;28;20233;-83
2023/03/02 00:25:05;;;;;;;16.60;9.93;;;;;;;;;;4991689;28;20235;-83
2023/03/02 00:27:32;;;;;;;15.40;10.53;;;;;;;;;;4991365;28;20226;-84
2023/03/02 00:30:00;;;;;;;16.87;10.97;;;;;;;;;;4992330;28;20576;-83
2023/03/02 00:32:27;;;;;;;16.80;11.07;;;;;;;;;;4992266;28;20797;-84
2023/03/02 00:34:54;;;;;;;16.47;10.40;;;;;;;;;;4995313;28;20727;-83
2023/03/02 00:37:22;;;;;;;16.97;10.63;;;;;;;;;;4995611;28;20215;-83
2023/03/02 00:39:51;;;;;;;15.40;9.70;;;;;;;;;;4994946;28;20239;-83
2023/03/02 00:42:19;;;;;;;17.70;10.63;;;;;;;;;;4995434;28;20207;-83
2023/03/02 00:44:46;;;;;;;16.27;10.70;;;;;;;;;;4994412;28;20246;-83
2023/03/02 00:47:13;;;;;;;14.20;9.33;;;;;;;;;;4995339;28;20230;-84
2023/03/02 00:49:40;;;;;;;17.03;10.10;;;;;;;;;;4995166;28;20258;-83
2023/03/02 00:52:08;;;;;;;15.07;10.67;;;;;;;;;;4999994;28;20214;-83
2023/03/02 00:54:35;;;;;;;14.33;10.03;;;;;;;;;;5002194;28;20779;-83
2023/03/02 00:57:04;;;;;;;18.87;10.30;;;;;;;;;;4996704;28;20215;-83
2023/03/02 00:59:31;;;;;;;16.63;11.77;;;;;;;;;;4994488;28;20267;-83
2023/03/02 01:01:59;;;;;;;17.07;10.63;;;;;;;;;;4994660;28;20242;-83
2023/03/02 01:04:29;;;;;;;15.37;10.00;;;;;;;;;;4994069;28;20239;-83
2023/03/02 01:06:56;;;;;;;15.97;10.67;;;;;;;;;;4994629;28;20242;-83
2023/03/02 01:09:24;;;;;;;15.57;9.50;;;;;;;;;;4994029;28;20238;-83
2023/03/02 01:11:51;;;;;;;16.83;10.50;;;;;;;;;;4994616;28;20698;-83
2023/03/02 01:14:19;;;;;;;15.53;9.83;;;;;;;;;;4994197;28;20238;-83
2023/03/02 01:16:47;;;;;;;15.80;10.20;;;;;;;;;;4994774;28;20241;-83
2023/03/02 01:19:14;;;;;;;15.13;10.20;;;;;;;;;;4994168;28;20661;-83
2023/03/02 01:21:42;;;;;;;16.20;11.40;;;;;;;;;;4994723;28;20233;-83
2023/03/02 01:24:10;;;;;;;16.67;11.27;;;;;;;;;;4993856;28;20241;-83
2023/03/02 01:26:38;;;;;;;15.10;10.63;;;;;;;;;;4994434;28;20238;-84
2023/03/02 01:29:05;;;;;;;16.93;10.40;;;;;;;;;;4994044;28;20726;-84
2023/03/02 01:31:33;;;;;;;16.83;10.13;;;;;;;;;;4994489;28;20218;-83
2023/03/02 01:34:01;;;;;;;17.47;10.73;;;;;;;;;;4976593;28;20265;-83
2023/03/02 01:36:28;;;;;;;13.60;10.13;;;;;;;;;;5031073;22;20242;-84
2023/03/02 01:38:55;;;;;;;17.63;9.77;;;;;;;;;;5006249;28;20242;-84
2023/03/02 01:41:22;;;;;;;18.60;10.83;;;;;;;;;;4995007;28;20319;-83
2023/03/02 01:43:49;;;;;;;15.93;10.00;;;;;;;;;;4992827;28;20250;-84
2023/03/02 01:46:18;;;;;;;13.47;9.40;;;;;;;;;;4994593;28;20235;-84
2023/03/02 01:48:48;;;;;;;17.93;9.73;;;;;;;;;;4994048;28;20237;-84
2023/03/02 01:51:17;;;;;;;16.03;10.60;;;;;;;;;;5004931;28;20209;-84
2023/03/02 01:53:46;;;;;;;18.40;10.77;;;;;;;;;;5013541;28;20248;-83
2023/03/02 01:56:15;;;;;;;14.03;9.20;;;;;;;;;;5014200;28;20280;-84
2023/03/02 01:58:43;;;;;;;14.77;9.47;;;;;;;;;;5013400;28;20236;-83
2023/03/02 02:01:14;;;;;;;15.03;9.70;;;;;;;;;;5013695;28;20237;-84
2023/03/02 02:03:42;;;;;;;18.27;10.33;;;;;;;;;;5012971;28;20229;-84
2023/03/02 02:06:16;;;;;;;14.87;9.63;;;;;;;;;;5003126;28;20238;-84
2023/03/02 02:08:43;;;;;;;15.43;10.30;;;;;;;;;;5012730;28;20268;-84
2023/03/02 02:11:11;;;;;;;15.47;10.00;;;;;;;;;;5013527;28;20213;-84
2023/03/02 02:13:38;;;;;;;14.27;9.53;;;;;;;;;;5012600;28;20233;-83
2023/03/02 02:16:06;;;;;;;15.57;9.73;;;;;;;;;;5012915;28;20726;-84
2023/03/02 02:18:33;;;;;;;15.93;10.13;;;;;;;;;;5012699;28;20245;-84
2023/03/02 02:21:01;;;;;;;17.53;10.13;;;;;;;;;;5013086;28;20309;-84
2023/03/02 02:23:34;;;;;;;15.97;9.77;;;;;;;;;;5012161;28;20239;-84
2023/03/02 02:26:08;;;;;;;18.27;10.53;;;;;;;;;;5012677;28;20232;-84
2023/03/02 02:28:38;;;;;;;19.47;10.70;;;;;;;;;;5012167;28;20270;-84
2023/03/02 02:31:07;;;;;;;14.53;9.60;;;;;;;;;;5012948;28;20214;-83
2023/03/02 02:33:34;;;;;;;17.00;9.57;;;;;;;;;;5012381;28;20240;-84
2023/03/02 02:36:04;;;;;;;16.40;10.00;;;;;;;;;;5012696;28;20234;-84
2023/03/02 02:38:32;;;;;;;14.57;9.97;;;;;;;;;;5012410;28;20236;-84
2023/03/02 02:41:00;;;;;;;14.80;10.00;;;;;;;;;;5012224;28;20230;-84
2023/03/02 02:43:30;;;;;;;16.20;10.17;;;;;;;;;;5012170;28;20287;-84
2023/03/02 02:45:58;;;;;;;16.93;9.63;;;;;;;;;;5012748;28;20231;-83
2023/03/02 02:48:29;;;;;;;16.03;10.57;;;;;;;;;;5012091;28;20609;-84
2023/03/02 02:51:01;;;;;;;16.63;10.43;;;;;;;;;;5012520;28;20665;-84
2023/03/02 02:53:30;;;;;;;14.80;9.80;;;;;;;;;;5011854;28;20234;-85
2023/03/02 02:55:58;;;;;;;16.00;11.03;;;;;;;;;;5012156;28;20880;-84
2023/03/02 02:58:29;;;;;;;14.90;9.83;;;;;;;;;;5011849;28;20606;-84
2023/03/02 03:00:57;;;;;;;13.37;9.77;;;;;;;;;;5012622;28;20195;-84
2023/03/02 03:03:29;;;;;;;17.53;10.20;;;;;;;;;;5011632;28;20229;-85
2023/03/02 03:05:57;;;;;;;17.00;10.33;;;;;;;;;;5012330;28;20223;-83
2023/03/02 03:08:52;;;;;;;13.77;10.20;;;;;;;;;;5011796;28;20231;-84
2023/03/02 03:11:22;;;;;;;14.53;9.87;;;;;;;;;;5012192;28;20193;-84
2023/03/02 03:13:50;;;;;;;14.83;9.73;;;;;;;;;;5011608;28;20359;-84
2023/03/02 03:16:21;;;;;;;14.53;9.67;;;;;;;;;;5012034;28;20231;-84
2023/03/02 03:18:50;;;;;;;18.30;9.87;;;;;;;;;;5011825;28;20247;-85
2023/03/02 03:21:18;;;;;;;17.03;9.60;;;;;;;;;;5011750;28;20224;-85
2023/03/02 03:23:45;;;;;;;17.53;10.40;;;;;;;;;;5011627;28;20239;-85
2023/03/02 03:26:15;;;;;;;18.33;9.90;;;;;;;;;;5011393;28;20251;-84
2023/03/02 03:28:42;;;;;;;15.50;9.93;;;;;;;;;;5011710;28;20230;-84
2023/03/02 03:31:10;;;;;;;19.17;10.90;;;;;;;;;;5012171;28;20669;-85
2023/03/02 03:33:38;;;;;;;13.57;9.20;;;;;;;;;;5011580;28;20235;-85
2023/03/02 03:36:06;;;;;;;15.83;10.27;;;;;;;;;;5011640;28;20243;-85
2023/03/02 03:38:33;;;;;;;14.70;9.03;;;;;;;;;;5010320;28;20289;-85
2023/03/02 03:41:00;;;;;;;13.80;9.80;;;;;;;;;;5011335;28;20702;-85
2023/03/02 03:43:27;;;;;;;15.37;10.00;;;;;;;;;;5010715;28;20237;-85
2023/03/02 03:45:55;;;;;;;13.23;9.80;;;;;;;;;;5011071;28;20620;-86
2023/03/02 03:48:22;;;;;;;13.93;10.10;;;;;;;;;;5010529;28;20259;-85
2023/03/02 03:50:51;;;;;;;14.37;9.70;;;;;;;;;;5011308;28;20217;-85
2023/03/02 03:53:18;;;;;;;14.80;9.53;;;;;;;;;;5010733;28;20238;-85
2023/03/02 03:55:45;;;;;;;15.10;9.60;;;;;;;;;;5011541;28;20239;-86
2023/03/02 03:58:12;;;;;;;15.57;10.03;;;;;;;;;;5010991;28;20238;-85
2023/03/02 04:00:40;;;;;;;16.10;9.43;;;;;;;;;;5010789;28;20208;-85
2023/03/02 04:03:07;;;;;;;13.30;9.90;;;;;;;;;;5010124;28;20240;-85
2023/03/02 04:05:34;;;;;;;15.83;9.67;;;;;;;;;;5010989;28;20235;-86
2023/03/02 04:08:03;;;;;;;15.53;9.60;;;;;;;;;;5012639;28;20243;-85
2023/03/02 04:10:30;;;;;;;14.43;9.40;;;;;;;;;;5014248;28;20205;-86
2023/03/02 04:12:57;;;;;;;19.30;9.70;;;;;;;;;;5013772;28;20629;-86
2023/03/02 04:15:25;;;;;;;14.07;9.00;;;;;;;;;;5014202;28;20211;-86
2023/03/02 04:17:52;;;;;;;15.63;9.23;;;;;;;;;;5013658;28;20242;-85
2023/03/02 04:20:20;;;;;;;13.67;8.90;;;;;;;;;;5014539;28;20215;-86
2023/03/02 04:22:48;;;;;;;15.07;9.93;;;;;;;;;;5012996;28;20241;-85
2023/03/02 04:25:20;;;;;;;13.57;10.10;;;;;;;;;;5014354;28;20215;-86
2023/03/02 04:27:47;;;;;;;16.23;9.93;;;;;;;;;;5013311;28;20239;-85
2023/03/02 04:30:15;;;;;;;14.27;9.30;;;;;;;;;;5014142;28;20232;-85
2023/03/02 04:32:42;;;;;;;13.73;9.10;;;;;;;;;;5013351;28;20294;-85
2023/03/02 04:35:11;;;;;;;17.42;10.15;;;;;;;;;;4982383;28;1450210;-85
2023/03/02 04:37:38;;;;;;;16.03;9.23;;;;;;;;;;5014679;28;20665;-85
2023/03/02 04:40:06;;;;;;;16.50;9.93;;;;;;;;;;5015283;28;20215;-85
2023/03/02 04:42:35;;;;;;;15.37;9.77;;;;;;;;;;5014424;28;20223;-85
2023/03/02 04:45:03;;;;;;;16.30;9.47;;;;;;;;;;5014998;28;20205;-85
2023/03/02 04:47:30;;;;;;;12.47;9.40;;;;;;;;;;5014629;28;20235;-86
2023/03/02 04:49:57;;;;;;;17.77;10.60;;;;;;;;;;5015095;28;20692;-85
2023/03/02 04:52:25;;;;;;;17.77;9.10;;;;;;;;;;5014073;28;20203;-86
2023/03/02 04:54:54;;;;;;;17.43;10.73;;;;;;;;;;5014887;28;20208;-86
2023/03/02 04:57:22;;;;;;;12.80;9.63;;;;;;;;;;5015042;28;20254;-85
2023/03/02 04:59:50;;;;;;;14.90;10.93;;;;;;;;;;5014059;28;20305;-84
2023/03/02 05:02:18;;;;;;;14.87;9.63;;;;;;;;;;5014646;28;20235;-84
2023/03/02 05:04:45;;;;;;;15.70;10.40;;;;;;;;;;5013782;28;20236;-84
2023/03/02 05:07:12;;;;;;;16.07;9.90;;;;;;;;;;5014215;28;20228;-84
2023/03/02 05:09:39;;;;;;;17.13;9.73;;;;;;;;;;5013934;28;20238;-84
2023/03/02 05:12:08;;;;;;;14.73;9.60;;;;;;;;;;5015033;28;20215;-84
2023/03/02 05:14:35;;;;;;;14.80;9.97;;;;;;;;;;5001825;28;20236;-84
2023/03/02 05:17:04;;;;;;;15.27;9.67;;;;;;;;;;5015420;28;20710;-85
2023/03/02 05:19:31;;;;;;;18.30;10.37;;;;;;;;;;5013098;28;20679;-84
2023/03/02 05:21:59;;;;;;;14.33;9.67;;;;;;;;;;5015411;28;20227;-83
2023/03/02 05:24:26;;;;;;;19.23;10.43;;;;;;;;;;5015447;28;20274;-84
2023/03/02 05:26:53;;;;;;;16.30;9.77;;;;;;;;;;5015620;28;20228;-85
2023/03/02 05:29:20;;;;;;;18.00;9.87;;;;;;;;;;5015401;28;20723;-85
2023/03/02 05:31:48;;;;;;;15.80;10.17;;;;;;;;;;5016451;28;20212;-85
2023/03/02 05:34:17;;;;;;;15.37;9.67;;;;;;;;;;5015114;28;20243;-85
2023/03/02 05:36:45;;;;;;;17.10;10.17;;;;;;;;;;5016144;28;20242;-84
2023/03/02 05:39:12;;;;;;;16.50;9.70;;;;;;;;;;5016056;28;20639;-84
2023/03/02 05:41:41;;;;;;;14.93;9.70;;;;;;;;;;5015578;28;20208;-84
2023/03/02 05:44:10;;;;;;;18.27;10.70;;;;;;;;;;5013283;28;20232;-84
2023/03/02 05:46:38;;;;;;;12.83;8.70;;;;;;;;;;5015468;28;20276;-84
2023/03/02 05:49:05;;;;;;;15.77;10.50;;;;;;;;;;5013958;28;20239;-84
2023/03/02 05:51:34;;;;;;;15.60;9.47;;;;;;;;;;5014232;28;20584;-85
2023/03/02 05:54:01;;;;;;;14.07;9.93;;;;;;;;;;5013633;28;20238;-85
2023/03/02 05:56:28;;;;;;;16.10;9.90;;;;;;;;;;5014924;28;20235;-85
2023/03/02 05:58:56;;;;;;;14.80;9.47;;;;;;;;;;5013691;28;20231;-85
2023/03/02 06:01:28;;;;;;;15.73;9.47;;;;;;;;;;5014203;28;20215;-84
2023/03/02 06:03:56;;;;;;;16.57;9.80;;;;;;;;;;5012106;28;20241;-85
2023/03/02 06:06:24;;;;;;;14.50;10.27;;;;;;;;;;5013569;28;20220;-85
2023/03/02 06:08:52;;;;;;;20.10;9.73;;;;;;;;;;5013045;28;20326;-85
2023/03/02 06:11:19;;;;;;;17.37;10.70;;;;;;;;;;5013454;28;20220;-83
2023/03/02 06:13:47;;;;;;;23.13;11.33;;;;;;;;;;5012247;28;20699;-83
2023/03/02 06:16:14;;;;;;;12.90;9.77;;;;;;;;;;5012960;28;20718;-83
2023/03/02 06:18:41;;;;;;;15.30;9.90;;;;;;;;;;5012320;28;20224;-83
2023/03/02 06:21:09;;;;;;;15.13;9.57;;;;;;;;;;5012978;28;20215;-83
2023/03/02 06:23:36;;;;;;;16.57;10.40;;;;;;;;;;5012107;28;20244;-83
2023/03/02 06:26:09;;;;;;;13.67;9.60;;;;;;;;;;5012227;28;20227;-84
2023/03/02 06:28:36;;;;;;;16.77;10.30;;;;;;;;;;5012145;28;20247;-83
2023/03/02 06:31:03;;;;;;;19.40;11.30;;;;;;;;;;5011774;28;20203;-83
2023/03/02 06:33:38;;;;;;;15.70;10.57;;;;;;;;;;5012107;28;20235;-84
2023/03/02 06:36:05;;;;;;;19.87;10.33;;;;;;;;;;5011412;28;20238;-83
2023/03/02 06:38:32;;;;;;;17.57;10.70;;;;;;;;;;5013218;28;20242;-84
2023/03/02 06:41:00;;;;;;;19.57;9.90;;;;;;;;;;5012841;28;20215;-87
2023/03/02 06:43:29;;;;;;;17.53;11.27;;;;;;;;;;5009240;28;20259;-86
2023/03/02 06:45:57;;;;;;;17.90;11.50;;;;;;;;;;5010009;28;20871;-85
2023/03/02 06:48:26;;;;;;;17.07;10.53;;;;;;;;;;4991868;28;20584;-86
2023/03/02 06:50:54;;;;;;;19.17;10.93;;;;;;;;;;5015503;28;20214;-87
2023/03/02 06:53:22;;;;;;;22.53;12.17;;;;;;;;;;5011565;28;20270;-87
2023/03/02 06:55:53;;;;;;;22.33;10.50;;;;;;;;;;5012968;28;20236;-87
2023/03/02 06:58:20;;;;;;;14.90;10.33;;;;;;;;;;4993594;28;20235;-87
2023/03/02 07:00:49;;;;;;;19.17;10.60;;;;;;;;;;5010982;28;20208;-86
2023/03/02 07:03:17;;;;;;;16.73;10.27;;;;;;;;;;5009638;28;20236;-86
2023/03/02 07:05:44;;;;;;;18.03;11.03;;;;;;;;;;5010000;28;20305;-87
2023/03/02 07:08:11;;;;;;;16.83;11.07;;;;;;;;;;5010310;28;20257;-87
2023/03/02 07:10:40;;;;;;;18.27;10.40;;;;;;;;;;5011083;28;20212;-87
2023/03/02 07:13:08;;;;;;;16.40;11.43;;;;;;;;;;5009639;28;20239;-86
2023/03/02 07:15:35;;;;;;;19.20;12.00;;;;;;;;;;5008414;28;20236;-85
2023/03/02 07:18:04;;;;;;;19.43;11.50;;;;;;;;;;5005558;28;20232;-84
2023/03/02 07:20:31;;;;;;;19.23;10.90;;;;;;;;;;5010009;28;20942;-85
2023/03/02 07:22:58;;;;;;;21.40;11.33;;;;;;;;;;4997303;28;20243;-84
2023/03/02 07:25:25;;;;;;;19.50;12.27;;;;;;;;;;5010219;28;20212;-83
2023/03/02 07:27:52;;;;;;;18.10;11.47;;;;;;;;;;5009920;28;20691;-84
2023/03/02 07:30:20;;;;;;;14.97;10.80;;;;;;;;;;5011297;28;20212;-83
2023/03/02 07:32:48;;;;;;;19.60;12.07;;;;;;;;;;5010527;28;20236;-84
2023/03/02 07:35:17;;;;;;;15.43;10.33;;;;;;;;;;5010564;28;20692;-83
2023/03/02 07:37:44;;;;;;;16.67;11.00;;;;;;;;;;5043606;23;20244;-88
2023/03/02 07:40:12;;;;;;;16.73;12.43;;;;;;;;;;5033294;28;20205;-88
2023/03/02 07:42:40;;;;;;;14.60;9.53;;;;;;;;;;5032428;28;20308;-87
2023/03/02 07:45:07;;;;;;;19.43;11.60;;;;;;;;;;5017628;28;20218;-87
2023/03/02 07:47:35;;;;;;;18.00;11.20;;;;;;;;;;5025679;28;20224;-87
2023/03/02 07:50:02;;;;;;;16.83;10.37;;;;;;;;;;5029085;28;20219;-87
2023/03/02 07:52:31;;;;;;;17.70;9.80;;;;;;;;;;5027324;28;20216;-87
2023/03/02 07:54:58;;;;;;;17.10;10.63;;;;;;;;;;5018244;28;20217;-87
2023/03/02 07:57:25;;;;;;;14.90;9.77;;;;;;;;;;5014939;28;20260;-87
2023/03/02 07:59:53;;;;;;;18.97;11.43;;;;;;;;;;5015343;28;20217;-88
2023/03/02 08:02:20;;;;;;;18.93;10.73;;;;;;;;;;5015084;28;20240;-88
2023/03/02 08:04:47;;;;;;;15.70;10.07;;;;;;;;;;5014777;28;20233;-88
2023/03/02 08:07:14;;;;;;;15.93;10.13;;;;;;;;;;5016719;28;20248;-87
2023/03/02 08:12:37;;;;;;;16.73;10.77;;;;;;;;;;5736956;23;20671;-82
2023/03/02 08:15:04;;;;;;;17.97;10.47;;;;;;;;;;5031437;28;20226;-83
2023/03/02 08:17:31;;;;;;;17.57;10.23;;;;;;;;;;5033867;28;20213;-84
2023/03/02 08:19:58;;;;;;;20.37;11.03;;;;;;;;;;5033780;28;20308;-82
2023/03/02 08:22:25;;;;;;;18.20;9.67;;;;;;;;;;5041211;28;20708;-82
2023/03/02 08:24:53;;;;;;;16.20;9.77;;;;;;;;;;5049785;28;20214;-84
2023/03/02 08:27:20;;;;;;;14.97;10.70;;;;;;;;;;5040274;28;20259;-84
2023/03/02 08:29:48;;;;;;;14.17;9.57;;;;;;;;;;5053737;28;20237;-84
2023/03/02 08:32:15;;;;;;;16.37;9.73;;;;;;;;;;5053936;28;20232;-87
2023/03/02 08:34:42;;;;;;;15.00;10.30;;;;;;;;;;5053832;28;20472;-88
2023/03/02 08:37:09;;;;;;;15.50;10.37;;;;;;;;;;5054588;28;20202;-87
2023/03/02 08:39:36;;;;;;;16.30;10.30;;;;;;;;;;5053941;28;20294;-86
2023/03/02 08:42:03;;;;;;;17.07;10.33;;;;;;;;;;5053993;28;20226;-87
2023/03/02 08:44:30;;;;;;;15.80;10.03;;;;;;;;;;5053850;28;20244;-87
2023/03/02 08:46:59;;;;;;;14.83;9.77;;;;;;;;;;5034090;28;20206;-87
2023/03/02 08:49:26;;;;;;;15.30;10.07;;;;;;;;;;5044570;28;20249;-87
2023/03/02 08:51:55;;;;;;;16.90;10.40;;;;;;;;;;5053592;28;20233;-86
2023/03/02 08:54:22;;;;;;;15.13;9.73;;;;;;;;;;5053421;28;20371;-87
2023/03/02 08:56:49;;;;;;;11.63;9.43;;;;;;;;;;5035461;28;20199;-86
2023/03/02 08:59:17;;;;;;;15.77;10.10;;;;;;;;;;5041589;28;20260;-86
2023/03/02 09:01:44;;;;;;;15.70;10.33;;;;;;;;;;5054652;28;20209;-86
2023/03/02 09:04:13;;;;;;;16.63;10.33;;;;;;;;;;5041932;28;20299;-87
2023/03/02 09:06:41;;;;;;;17.47;10.07;;;;;;;;;;5037734;28;20683;-87
2023/03/02 09:09:08;;;;;;;15.53;10.93;;;;;;;;;;5051587;28;20237;-88
2023/03/02 09:11:35;;;;;;;14.63;10.53;;;;;;;;;;5054428;28;20215;-86
2023/03/02 09:14:03;;;;;;;15.50;10.53;;;;;;;;;;5042203;28;20222;-87
2023/03/02 09:16:30;;;;;;;18.03;9.53;;;;;;;;;;5034485;28;20217;-88
2023/03/02 09:18:57;;;;;;;11.83;9.73;;;;;;;;;;5034313;28;20481;-88
2023/03/02 09:21:26;;;;;;;15.77;10.23;;;;;;;;;;5034082;28;20194;-87
2023/03/02 09:23:56;;;;;;;19.07;10.60;;;;;;;;;;5033542;28;20590;-87
2023/03/02 09:26:23;;;;;;;15.67;10.30;;;;;;;;;;5034362;28;20301;-88
2023/03/02 09:28:51;;;;;;;13.93;10.03;;;;;;;;;;5032939;28;20710;-87
2023/03/02 09:31:18;;;;;;;19.30;11.13;;;;;;;;;;5033071;28;20203;-87
2023/03/02 09:33:45;;;;;;;14.90;10.37;;;;;;;;;;5032684;28;20230;-87
2023/03/02 09:36:16;;;;;;;15.33;9.57;;;;;;;;;;5038567;28;20203;-87
2023/03/02 09:38:44;;;;;;;15.23;9.50;;;;;;;;;;5053328;28;20231;-89
2023/03/02 09:41:20;;;;;;;17.03;9.90;;;;;;;;;;5054022;28;20205;-86
2023/03/02 09:43:52;;;;;;;15.03;9.87;;;;;;;;;;5053326;28;20240;-88
2023/03/02 09:46:23;;;;;;;16.83;10.20;;;;;;;;;;5045075;28;20227;-88
2023/03/02 09:48:56;;;;;;;12.23;9.57;;;;;;;;;;5043159;28;20234;-89
2023/03/02 09:51:28;;;;;;;14.67;9.80;;;;;;;;;;5034825;28;20238;-89
2023/03/02 09:54:00;;;;;;;14.57;9.93;;;;;;;;;;5033585;28;20236;-87
2023/03/02 09:56:27;;;;;;;15.30;10.00;;;;;;;;;;5042149;28;20201;-88
2023/03/02 09:58:57;;;;;;;16.50;10.10;;;;;;;;;;5033279;28;20731;-88
2023/03/02 10:01:30;;;;;;;16.23;10.43;;;;;;;;;;5036463;28;20701;-88
2023/03/02 10:04:00;;;;;;;12.37;8.80;;;;;;;;;;5053249;28;20241;-88
2023/03/02 10:06:28;;;;;;;11.60;8.60;;;;;;;;;;5052532;28;20205;-88
2023/03/02 10:08:56;;;;;;;16.93;10.37;;;;;;;;;;5051116;28;20236;-89
2023/03/02 10:11:28;;;;;;;13.67;9.23;;;;;;;;;;5052942;28;20273;-87
2023/03/02 10:13:59;;;;;;;16.70;10.53;;;;;;;;;;5052748;28;20237;-87
2023/03/02 10:16:31;;;;;;;15.73;9.70;;;;;;;;;;5052372;28;20209;-88
2023/03/02 10:19:02;;;;;;;15.47;9.20;;;;;;;;;;5040625;28;20248;-88
2023/03/02 10:21:30;;;;;;;13.53;8.93;;;;;;;;;;5032979;28;20286;-87
2023/03/02 10:24:01;;;;;;;11.67;8.53;;;;;;;;;;5032844;28;20227;-87
2023/03/02 10:26:38;;;;;;;16.87;9.93;;;;;;;;;;5050769;28;20201;-88
2023/03/02 10:29:12;;;;;;;14.07;9.77;;;;;;;;;;5032035;28;20329;-87
2023/03/02 10:31:40;;;;;;;16.33;9.93;;;;;;;;;;5032459;28;20206;-88
2023/03/02 10:34:09;;;;;;;14.93;9.33;;;;;;;;;;5031975;28;20502;-89
2023/03/02 10:36:38;;;;;;;12.57;8.93;;;;;;;;;;5039454;28;20199;-88
2023/03/02 10:39:07;;;;;;;12.17;8.60;;;;;;;;;;5052030;28;20244;-88
2023/03/02 10:41:39;;;;;;;14.07;8.57;;;;;;;;;;5048193;28;20209;-88
2023/03/02 10:44:08;;;;;;;15.03;9.20;;;;;;;;;;5035415;28;20238;-87
2023/03/02 10:46:41;;;;;;;12.07;9.03;;;;;;;;;;5047904;28;20201;-87
2023/03/02 10:49:23;;;;;;;11.60;8.20;;;;;;;;;;5047040;28;20241;-88
2023/03/02 10:51:55;;;;;;;14.97;8.53;;;;;;;;;;5031989;28;20227;-87
2023/03/02 10:54:24;;;;;;;11.67;8.50;;;;;;;;;;5031630;28;20245;-85
2023/03/02 10:56:54;;;;;;;12.40;8.77;;;;;;;;;;5041916;28;20210;-87
2023/03/02 10:59:32;;;;;;;11.07;8.47;;;;;;;;;;5037481;28;20231;-87
2023/03/02 11:02:01;;;;;;;11.87;8.13;;;;;;;;;;5031721;28;20768;-86
2023/03/02 11:04:28;;;;;;;11.73;8.63;;;;;;;;;;5030871;28;20257;-86
2023/03/02 11:06:56;;;;;;;12.67;7.70;;;;;;;;;;5032006;28;20210;-87
2023/03/02 11:09:23;;;;;;;12.83;8.73;;;;;;;;;;5033806;28;20230;-88
2023/03/02 11:11:52;;;;;;;10.87;8.27;;;;;;;;;;5040282;28;20219;-88
2023/03/02 11:14:22;;;;;;;13.83;8.23;;;;;;;;;;5031915;28;20235;-88
2023/03/02 11:16:49;;;;;;;12.67;8.33;;;;;;;;;;5032538;28;20206;-88
2023/03/02 11:19:18;;;;;;;15.20;9.00;;;;;;;;;;5042496;28;20222;-88
2023/03/02 11:21:48;;;;;;;13.97;8.20;;;;;;;;;;5038046;28;20202;-88
2023/03/02 11:24:17;;;;;;;12.03;7.47;;;;;;;;;;5032213;28;20249;-94
2023/03/02 11:26:46;;;;;;;12.77;8.57;;;;;;;;;;5035064;28;20221;-87
2023/03/02 11:29:18;;;;;;;10.27;7.70;;;;;;;;;;5051366;28;20234;-85
2023/03/02 11:31:49;;;;;;;10.73;8.13;;;;;;;;;;5048050;28;20206;-83
2023/03/02 11:34:25;;;;;;;11.83;8.20;;;;;;;;;;5050741;28;20236;-82
2023/03/02 11:37:11;;;;;;;10.70;7.97;;;;;;;;;;5040404;28;20206;-82
2023/03/02 11:39:44;;;;;;;11.27;7.77;;;;;;;;;;5038070;28;20230;-83
2023/03/02 11:42:18;;;;;;;12.20;8.20;;;;;;;;;;5042926;28;20592;-83
2023/03/02 11:44:46;;;;;;;11.50;7.93;;;;;;;;;;5049459;28;20334;-83
2023/03/02 11:47:14;;;;;;;12.80;7.83;;;;;;;;;;5050463;28;20213;-83
2023/03/02 11:49:43;;;;;;;12.37;7.80;;;;;;;;;;5043493;28;20607;-85
2023/03/02 11:52:16;;;;;;;11.93;8.10;;;;;;;;;;5030477;28;20226;-84
2023/03/02 11:54:45;;;;;;;13.60;8.37;;;;;;;;;;5033628;28;20229;-84
2023/03/02 11:57:18;;;;;;;13.87;8.23;;;;;;;;;;5042941;28;20247;-84
2023/03/02 11:59:45;;;;;;;11.83;8.30;;;;;;;;;;5050048;28;20233;-84
2023/03/02 12:02:14;;;;;;;11.00;8.30;;;;;;;;;;5049985;28;20705;-84
2023/03/02 12:04:42;;;;;;;9.60;7.10;;;;;;;;;;5050006;28;20245;-84
2023/03/02 12:07:17;;;;;;;12.10;7.90;;;;;;;;;;5039689;28;20210;-84
2023/03/02 12:09:45;;;;;;;11.43;7.50;;;;;;;;;;5050005;28;20242;-85
2023/03/02 12:12:31;;;;;;;12.23;7.73;;;;;;;;;;5050244;28;20717;-86
2023/03/02 12:14:58;;;;;;;12.27;7.60;;;;;;;;;;5049371;28;20309;-85
2023/03/02 12:17:31;;;;;;;13.07;6.83;;;;;;;;;;5045353;28;20209;-87
2023/03/02 12:20:22;;;;;;;9.47;7.17;;;;;;;;;;5030518;28;20312;-86
2023/03/02 12:22:49;;;;;;;9.57;7.70;;;;;;;;;;5032851;28;20269;-86
2023/03/02 12:25:26;;;;;;;10.33;7.60;;;;;;;;;;5049542;28;20698;-85
2023/03/02 12:27:54;;;;;;;9.70;7.60;;;;;;;;;;5037459;28;20335;-85
2023/03/02 12:30:25;;;;;;;12.37;7.83;;;;;;;;;;5040736;28;20384;-86
2023/03/02 12:33:01;;;;;;;11.67;7.60;;;;;;;;;;5041890;28;20265;-86
2023/03/02 12:35:29;;;;;;;10.40;6.90;;;;;;;;;;5043826;28;20584;-85
2023/03/02 12:37:58;;;;;;;9.83;7.00;;;;;;;;;;5044734;28;20242;-86
2023/03/02 12:40:29;;;;;;;12.43;8.23;;;;;;;;;;5034996;28;20206;-83
2023/03/02 12:43:06;;;;;;;8.67;7.10;;;;;;;;;;5034566;28;20341;-84
2023/03/02 12:45:42;;;;;;;11.63;7.40;;;;;;;;;;5034428;28;20238;-85
2023/03/02 12:48:21;;;;;;;9.73;7.27;;;;;;;;;;5044330;28;20233;-85
2023/03/02 12:50:49;;;;;;;11.00;7.70;;;;;;;;;;5044017;28;20210;-83
2023/03/02 12:53:18;;;;;;;9.77;7.23;;;;;;;;;;5038150;28;20226;-85
2023/03/02 12:55:45;;;;;;;8.80;6.80;;;;;;;;;;5048721;28;20210;-87
2023/03/02 12:58:17;;;;;;;11.37;6.83;;;;;;;;;;5053759;28;20241;-86
2023/03/02 13:00:49;;;;;;;11.43;7.00;;;;;;;;;;5034275;28;20639;-85
2023/03/02 13:03:17;;;;;;;10.63;6.67;;;;;;;;;;5033464;28;20728;-85
2023/03/02 13:05:46;;;;;;;11.23;7.73;;;;;;;;;;5042641;28;20225;-86
2023/03/02 13:08:17;;;;;;;12.63;7.20;;;;;;;;;;5052911;28;20775;-85
2023/03/02 13:10:49;;;;;;;8.40;6.70;;;;;;;;;;5049767;28;20214;-86
2023/03/02 13:13:17;;;;;;;12.07;7.90;;;;;;;;;;5033289;28;20235;-85
2023/03/02 13:15:48;;;;;;;10.07;6.93;;;;;;;;;;5041540;28;20625;-85
2023/03/02 13:18:15;;;;;;;12.32;6.72;;;;;;;;;;5053027;28;20316;-85
2023/03/02 13:20:43;;;;;;;9.23;6.60;;;;;;;;;;5052791;28;20264;-85
2023/03/02 13:23:10;;;;;;;12.10;7.00;;;;;;;;;;5052439;28;20607;-85
2023/03/02 13:25:47;;;;;;;10.30;6.50;;;;;;;;;;5052805;28;20234;-85
2023/03/02 13:28:26;;;;;;;10.10;6.97;;;;;;;;;;5052908;28;20233;-87
2023/03/02 13:30:56;;;;;;;9.27;6.63;;;;;;;;;;5053753;28;20210;-87
2023/03/02 13:33:24;;;;;;;8.65;6.53;;;;;;;;;;5052984;28;20253;-86
2023/03/02 13:35:52;;;;;;;11.80;5.88;;;;;;;;;;5045004;28;20203;-87
2023/03/02 13:38:20;;;;;;;9.70;6.30;;;;;;;;;;5032738;28;20267;-87
2023/03/02 13:40:50;;;;;;;8.48;6.40;;;;;;;;;;5032217;28;20383;-86
2023/03/02 13:43:44;;;;;;;10.23;6.30;;;;;;;;;;5032266;28;20261;-87
2023/03/02 13:46:31;;;;;;;6.95;5.88;;;;;;;;;;4995728;28;20287;-86
2023/03/02 13:48:59;;;;;;;10.85;6.38;;;;;;;;;;5034809;28;20679;-87
2023/03/02 13:51:28;;;;;;;9.45;6.35;;;;;;;;;;5033101;28;20623;-86
2023/03/02 13:53:56;;;;;;;8.77;6.32;;;;;;;;;;5032598;28;20230;-89
2023/03/02 13:56:27;;;;;;;11.13;5.85;;;;;;;;;;5042885;28;20202;-85
2023/03/02 13:58:54;;;;;;;8.43;6.05;;;;;;;;;;5042527;28;20587;-85
2023/03/02 14:01:21;;;;;;;10.32;5.97;;;;;;;;;;5038900;28;20205;-86
2023/03/02 14:03:49;;;;;;;8.55;6.28;;;;;;;;;;5033257;28;20292;-88
2023/03/02 14:06:17;;;;;;;7.75;5.78;;;;;;;;;;5033348;28;20630;-89
2023/03/02 14:08:45;;;;;;;10.20;6.18;;;;;;;;;;5033050;28;20238;-87
2023/03/02 14:11:14;;;;;;;9.40;5.82;;;;;;;;;;5032975;28;20202;-87
2023/03/02 14:13:44;;;;;;;10.70;6.65;;;;;;;;;;5031965;28;20242;-87
2023/03/02 14:16:12;;;;;;;7.13;5.70;;;;;;;;;;5039444;28;20210;-86
2023/03/02 14:18:40;;;;;;;8.88;6.40;;;;;;;;;;5051894;28;20604;-87
2023/03/02 14:21:11;;;;;;;9.93;5.35;;;;;;;;;;5052397;28;20209;-87
2023/03/02 14:23:39;;;;;;;7.72;5.35;;;;;;;;;;5045113;28;20292;-87
2023/03/02 14:26:10;;;;;;;8.15;5.50;;;;;;;;;;5035200;28;20253;-89
2023/03/02 14:28:37;;;;;;;9.93;5.45;;;;;;;;;;5052647;28;20238;-89
2023/03/02 14:31:06;;;;;;;8.77;6.30;;;;;;;;;;5052828;28;20610;-88
2023/03/02 14:33:33;;;;;;;15.50;10.57;;;;;;;;;;5051147;28;20299;-87
2023/03/02 14:36:00;;;;;;;15.43;10.63;;;;;;;;;;5047887;28;20234;-86
2023/03/02 14:38:28;;;;;;;8.27;5.50;;;;;;;;;;5032820;28;20234;-86